sensor_id;sensor_type;location;lat;lon;timestamp;temperature;humidity
25568;DHT22;13455;51.480;7.594;2023-07-20T02:42:53;16.00;99.90
25568;DHT22;13455;51.480;7.594;2023-07-20T02:45:18;16.10;99.90
25568;DHT22;13455;51.480;7.594;2023-07-20T02:47:44;15.90;99.90
25568;DHT22;13455;51.480;7.594;2023-07-20T02:50:09;16.00;99.90
25568;DHT22;13455;51.480;7.594;2023-07-20T02:55:01;15.90;99.90
25568;DHT22;13455;51.480;7.594;2023-07-20T02:57:27;15.90;99.90
25568;DHT22;13455;51.480;7.594;2023-07-20T02:59:52;15.90;99.90
25568;DHT22;13455;51.480;7.594;2023-07-20T03:02:19;16.00;99.90
25568;DHT22;13455;51.480;7.594;2023-07-20T03:04:44;16.20;99.90
25568;DHT22;13455;51.480;7.594;2023-07-20T03:07:10;15.90;99.90
25568;DHT22;13455;51.480;7.594;2023-07-20T03:09:35;15.90;99.90
25568;DHT22;13455;51.480;7.594;2023-07-20T03:12:01;15.80;99.90
25568;DHT22;13455;51.480;7.594;2023-07-20T03:14:26;15.90;99.90
25568;DHT22;13455;51.480;7.594;2023-07-20T03:16:52;15.90;99.90
25568;DHT22;13455;51.480;7.594;2023-07-20T03:19:18;15.80;99.90
25568;DHT22;13455;51.480;7.594;2023-07-20T03:21:43;15.80;99.90
25568;DHT22;13455;51.480;7.594;2023-07-20T03:24:09;15.80;99.90
25568;DHT22;13455;51.480;7.594;2023-07-20T03:26:35;15.90;99.90
25568;DHT22;13455;51.480;7.594;2023-07-20T03:29:02;15.90;99.90
25568;DHT22;13455;51.480;7.594;2023-07-20T03:31:28;15.90;99.90
25568;DHT22;13455;51.480;7.594;2023-07-20T03:33:53;16.00;99.90
25568;DHT22;13455;51.480;7.594;2023-07-20T03:36:19;16.00;99.90
25568;DHT22;13455;51.480;7.594;2023-07-20T03:38:46;16.00;99.90
25568;DHT22;13455;51.480;7.594;2023-07-20T03:41:11;16.00;99.90
25568;DHT22;13455;51.480;7.594;2023-07-20T03:43:37;15.90;99.90
25568;DHT22;13455;51.480;7.594;2023-07-20T03:46:03;15.90;99.90
25568;DHT22;13455;51.480;7.594;2023-07-20T03:48:32;15.90;99.90
25568;DHT22;13455;51.480;7.594;2023-07-20T03:50:58;15.90;99.90
25568;DHT22;13455;51.480;7.594;2023-07-20T03:53:25;15.80;99.90
25568;DHT22;13455;51.480;7.594;2023-07-20T03:55:52;15.90;99.90
25568;DHT22;13455;51.480;7.594;2023-07-20T03:58:19;15.90;99.90
25568;DHT22;13455;51.480;7.594;2023-07-20T04:00:49;15.90;99.90
25568;DHT22;13455;51.480;7.594;2023-07-20T04:03:16;15.90;99.90
25568;DHT22;13455;51.480;7.594;2023-07-20T04:05:42;15.90;99.90
25568;DHT22;13455;51.480;7.594;2023-07-20T04:08:08;15.80;99.90
25568;DHT22;13455;51.480;7.594;2023-07-20T04:10:34;15.80;99.90
25568;DHT22;13455;51.480;7.594;2023-07-20T04:13:00;15.80;99.90
25568;DHT22;13455;51.480;7.594;2023-07-20T04:15:26;15.80;99.90
25568;DHT22;13455;51.480;7.594;2023-07-20T04:17:52;15.80;99.90
25568;DHT22;13455;51.480;7.594;2023-07-20T04:20:17;15.80;99.90
25568;DHT22;13455;51.480;7.594;2023-07-20T04:22:43;15.80;99.90
25568;DHT22;13455;51.480;7.594;2023-07-20T04:25:09;15.90;99.90
25568;DHT22;13455;51.480;7.594;2023-07-20T04:27:35;15.80;99.90
25568;DHT22;13455;51.480;7.594;2023-07-20T04:30:01;15.80;99.90
25568;DHT22;13455;51.480;7.594;2023-07-20T04:32:30;15.80;99.90
25568;DHT22;13455;51.480;7.594;2023-07-20T04:34:59;15.80;99.90
25568;DHT22;13455;51.480;7.594;2023-07-20T04:37:24;15.80;99.90
25568;DHT22;13455;51.480;7.594;2023-07-20T04:39:50;15.80;99.90
25568;DHT22;13455;51.480;7.594;2023-07-20T04:42:15;15.80;99.90
25568;DHT22;13455;51.480;7.594;2023-07-20T04:44:41;15.90;99.90
25568;DHT22;13455;51.480;7.594;2023-07-20T04:47:07;15.90;99.90
25568;DHT22;13455;51.480;7.594;2023-07-20T04:49:34;15.90;99.90
25568;DHT22;13455;51.480;7.594;2023-07-20T04:51:59;15.80;99.90
25568;DHT22;13455;51.480;7.594;2023-07-20T04:54:25;15.90;99.90
25568;DHT22;13455;51.480;7.594;2023-07-20T04:56:52;16.00;99.90
25568;DHT22;13455;51.480;7.594;2023-07-20T04:59:18;16.00;99.90
25568;DHT22;13455;51.480;7.594;2023-07-20T05:01:44;16.20;99.90
25568;DHT22;13455;51.480;7.594;2023-07-20T05:06:37;16.00;99.90
25568;DHT22;13455;51.480;7.594;2023-07-20T05:09:04;16.00;99.90
25568;DHT22;13455;51.480;7.594;2023-07-20T05:11:30;16.00;99.90
25568;DHT22;13455;51.480;7.594;2023-07-20T05:13:56;15.90;99.90
25568;DHT22;13455;51.480;7.594;2023-07-20T05:16:21;15.90;99.90
25568;DHT22;13455;51.480;7.594;2023-07-20T05:18:47;15.90;99.90
25568;DHT22;13455;51.480;7.594;2023-07-20T05:21:13;15.90;99.90
25568;DHT22;13455;51.480;7.594;2023-07-20T05:23:39;15.90;99.90
25568;DHT22;13455;51.480;7.594;2023-07-20T05:26:04;15.90;99.90
25568;DHT22;13455;51.480;7.594;2023-07-20T05:28:30;15.90;99.90
25568;DHT22;13455;51.480;7.594;2023-07-20T05:30:55;15.90;99.90
25568;DHT22;13455;51.480;7.594;2023-07-20T05:33:22;15.90;99.90
25568;DHT22;13455;51.480;7.594;2023-07-20T05:35:48;16.00;99.90
25568;DHT22;13455;51.480;7.594;2023-07-20T05:38:13;16.00;99.90
25568;DHT22;13455;51.480;7.594;2023-07-20T05:40:41;16.00;99.90
25568;DHT22;13455;51.480;7.594;2023-07-20T05:43:07;16.10;99.90
25568;DHT22;13455;51.480;7.594;2023-07-20T05:45:33;16.00;99.90
25568;DHT22;13455;51.480;7.594;2023-07-20T05:47:58;16.20;99.90
25568;DHT22;13455;51.480;7.594;2023-07-20T05:50:24;16.20;99.90
25568;DHT22;13455;51.480;7.594;2023-07-20T05:52:52;16.30;99.90
25568;DHT22;13455;51.480;7.594;2023-07-20T05:55:18;16.30;99.90
25568;DHT22;13455;51.480;7.594;2023-07-20T05:57:44;16.40;99.90
25568;DHT22;13455;51.480;7.594;2023-07-20T06:00:10;16.40;99.90
25568;DHT22;13455;51.480;7.594;2023-07-20T06:02:37;16.40;99.90
25568;DHT22;13455;51.480;7.594;2023-07-20T06:05:03;16.40;99.90
25568;DHT22;13455;51.480;7.594;2023-07-20T06:07:29;16.30;99.90
25568;DHT22;13455;51.480;7.594;2023-07-20T06:09:54;16.40;99.90
25568;DHT22;13455;51.480;7.594;2023-07-20T06:12:20;16.40;99.90
25568;DHT22;13455;51.480;7.594;2023-07-20T06:14:45;16.40;99.90
25568;DHT22;13455;51.480;7.594;2023-07-20T06:17:11;16.60;99.90
25568;DHT22;13455;51.480;7.594;2023-07-20T06:19:37;16.50;99.90
25568;DHT22;13455;51.480;7.594;2023-07-20T06:22:03;16.50;99.90
25568;DHT22;13455;51.480;7.594;2023-07-20T06:24:29;16.50;99.90
25568;DHT22;13455;51.480;7.594;2023-07-20T06:26:54;16.60;99.90
25568;DHT22;13455;51.480;7.594;2023-07-20T06:29:20;16.80;99.90
25568;DHT22;13455;51.480;7.594;2023-07-20T06:31:45;16.70;99.90
25568;DHT22;13455;51.480;7.594;2023-07-20T06:34:11;16.80;99.90
25568;DHT22;13455;51.480;7.594;2023-07-20T06:36:36;16.90;99.90
25568;DHT22;13455;51.480;7.594;2023-07-20T06:39:02;16.90;99.90
25568;DHT22;13455;51.480;7.594;2023-07-20T06:41:28;17.00;99.90
25568;DHT22;13455;51.480;7.594;2023-07-20T06:43:53;17.10;99.90
25568;DHT22;13455;51.480;7.594;2023-07-20T06:46:24;17.20;99.90
25568;DHT22;13455;51.480;7.594;2023-07-20T06:48:50;17.50;99.90
25568;DHT22;13455;51.480;7.594;2023-07-20T06:51:15;17.30;99.90
25568;DHT22;13455;51.480;7.594;2023-07-20T06:53:41;17.30;99.90
25568;DHT22;13455;51.480;7.594;2023-07-20T06:56:07;17.30;99.90
25568;DHT22;13455;51.480;7.594;2023-07-20T06:58:33;17.30;99.90
25568;DHT22;13455;51.480;7.594;2023-07-20T07:00:59;17.40;99.90
25568;DHT22;13455;51.480;7.594;2023-07-20T07:03:24;17.40;99.90
25568;DHT22;13455;51.480;7.594;2023-07-20T07:05:50;17.60;99.90
25568;DHT22;13455;51.480;7.594;2023-07-20T07:08:20;17.60;99.90
25568;DHT22;13455;51.480;7.594;2023-07-20T07:10:45;17.80;99.90
25568;DHT22;13455;51.480;7.594;2023-07-20T07:13:11;17.90;99.90
25568;DHT22;13455;51.480;7.594;2023-07-20T07:15:36;18.10;99.90
25568;DHT22;13455;51.480;7.594;2023-07-20T07:18:02;18.30;99.90
25568;DHT22;13455;51.480;7.594;2023-07-20T07:25:22;19.00;99.90
25568;DHT22;13455;51.480;7.594;2023-07-20T07:27:48;19.00;99.90
25568;DHT22;13455;51.480;7.594;2023-07-20T07:30:13;19.20;99.90
25568;DHT22;13455;51.480;7.594;2023-07-20T07:32:39;19.30;99.90
25568;DHT22;13455;51.480;7.594;2023-07-20T07:35:05;19.50;99.90
25568;DHT22;13455;51.480;7.594;2023-07-20T07:37:31;19.60;99.90
25568;DHT22;13455;51.480;7.594;2023-07-20T07:39:57;19.70;99.90
25568;DHT22;13455;51.480;7.594;2023-07-20T07:42:22;19.80;99.90
25568;DHT22;13455;51.480;7.594;2023-07-20T07:44:48;19.90;99.90
25568;DHT22;13455;51.480;7.594;2023-07-20T07:47:14;19.90;99.90
25568;DHT22;13455;51.480;7.594;2023-07-20T07:56:58;20.30;99.90
25568;DHT22;13455;51.480;7.594;2023-07-20T07:59:23;19.90;99.90
25568;DHT22;13455;51.480;7.594;2023-07-20T08:01:49;19.50;99.90
25568;DHT22;13455;51.480;7.594;2023-07-20T08:04:15;19.60;99.90
25568;DHT22;13455;51.480;7.594;2023-07-20T08:06:40;19.60;99.90
25568;DHT22;13455;51.480;7.594;2023-07-20T08:09:06;19.60;99.90
25568;DHT22;13455;51.480;7.594;2023-07-20T08:11:32;19.80;99.90
25568;DHT22;13455;51.480;7.594;2023-07-20T08:14:00;19.90;99.90
25568;DHT22;13455;51.480;7.594;2023-07-20T08:16:26;20.10;99.90
25568;DHT22;13455;51.480;7.594;2023-07-20T08:18:51;20.40;99.90
25568;DHT22;13455;51.480;7.594;2023-07-20T08:21:17;20.30;99.90
25568;DHT22;13455;51.480;7.594;2023-07-20T08:26:08;20.90;99.90
25568;DHT22;13455;51.480;7.594;2023-07-20T08:28:36;20.90;99.90
25568;DHT22;13455;51.480;7.594;2023-07-20T08:55:32;22.10;99.90
25568;DHT22;13455;51.480;7.594;2023-07-20T08:57:59;22.00;99.90
25568;DHT22;13455;51.480;7.594;2023-07-20T09:00:26;22.00;99.90
25568;DHT22;13455;51.480;7.594;2023-07-20T09:02:54;22.00;99.90
25568;DHT22;13455;51.480;7.594;2023-07-20T09:05:21;21.90;99.90
25568;DHT22;13455;51.480;7.594;2023-07-20T09:07:48;22.20;99.90
25568;DHT22;13455;51.480;7.594;2023-07-20T09:10:14;22.40;99.90
25568;DHT22;13455;51.480;7.594;2023-07-20T09:12:41;22.20;99.90
25568;DHT22;13455;51.480;7.594;2023-07-20T09:17:34;22.50;99.90
25568;DHT22;13455;51.480;7.594;2023-07-20T09:20:04;22.50;99.90
25568;DHT22;13455;51.480;7.594;2023-07-20T09:22:36;22.80;99.90
25568;DHT22;13455;51.480;7.594;2023-07-20T09:30:05;23.30;99.90
25568;DHT22;13455;51.480;7.594;2023-07-20T09:32:38;23.40;99.90
25568;DHT22;13455;51.480;7.594;2023-07-20T09:35:06;23.80;99.90
25568;DHT22;13455;51.480;7.594;2023-07-20T09:37:33;23.90;99.90
25568;DHT22;13455;51.480;7.594;2023-07-20T09:39:59;24.00;99.90
25568;DHT22;13455;51.480;7.594;2023-07-20T09:42:26;24.00;99.90
25568;DHT22;13455;51.480;7.594;2023-07-20T09:44:52;24.10;99.90
25568;DHT22;13455;51.480;7.594;2023-07-20T09:47:22;24.10;99.90
25568;DHT22;13455;51.480;7.594;2023-07-20T09:49:48;24.20;99.90
25568;DHT22;13455;51.480;7.594;2023-07-20T09:52:15;24.20;99.90
25568;DHT22;13455;51.480;7.594;2023-07-20T09:54:44;24.50;99.90
25568;DHT22;13455;51.480;7.594;2023-07-20T09:57:11;24.60;99.90
25568;DHT22;13455;51.480;7.594;2023-07-20T09:59:39;24.90;99.90
25568;DHT22;13455;51.480;7.594;2023-07-20T10:02:11;25.00;99.90
25568;DHT22;13455;51.480;7.594;2023-07-20T10:04:37;25.10;99.90
25568;DHT22;13455;51.480;7.594;2023-07-20T10:07:05;25.40;98.30
25568;DHT22;13455;51.480;7.594;2023-07-20T10:09:35;25.60;99.90
25568;DHT22;13455;51.480;7.594;2023-07-20T10:12:03;25.70;99.90
25568;DHT22;13455;51.480;7.594;2023-07-20T10:14:29;25.70;99.90
25568;DHT22;13455;51.480;7.594;2023-07-20T10:16:58;25.70;99.60
25568;DHT22;13455;51.480;7.594;2023-07-20T10:19:47;25.70;95.60
25568;DHT22;13455;51.480;7.594;2023-07-20T10:22:19;25.90;95.50
25568;DHT22;13455;51.480;7.594;2023-07-20T10:24:46;26.10;95.30
25568;DHT22;13455;51.480;7.594;2023-07-20T10:27:13;26.10;95.50
25568;DHT22;13455;51.480;7.594;2023-07-20T10:29:41;26.30;93.90
25568;DHT22;13455;51.480;7.594;2023-07-20T10:32:08;26.50;93.00
25568;DHT22;13455;51.480;7.594;2023-07-20T10:34:34;26.70;93.10
25568;DHT22;13455;51.480;7.594;2023-07-20T10:37:00;26.90;92.20
25568;DHT22;13455;51.480;7.594;2023-07-20T10:42:05;27.20;84.70
25568;DHT22;13455;51.480;7.594;2023-07-20T10:44:32;27.30;86.80
25568;DHT22;13455;51.480;7.594;2023-07-20T10:47:02;27.60;99.90
25568;DHT22;13455;51.480;7.594;2023-07-20T10:51:58;28.00;78.30
25568;DHT22;13455;51.480;7.594;2023-07-20T10:56:50;28.30;79.00
25568;DHT22;13455;51.480;7.594;2023-07-20T10:59:20;28.50;81.40
25568;DHT22;13455;51.480;7.594;2023-07-20T11:02:08;28.40;78.40
25568;DHT22;13455;51.480;7.594;2023-07-20T11:04:45;28.30;77.50
25568;DHT22;13455;51.480;7.594;2023-07-20T11:07:15;28.50;76.50
25568;DHT22;13455;51.480;7.594;2023-07-20T11:12:18;28.70;91.00
25568;DHT22;13455;51.480;7.594;2023-07-20T11:14:57;28.60;72.30
25568;DHT22;13455;51.480;7.594;2023-07-20T11:22:30;29.00;69.30
25568;DHT22;13455;51.480;7.594;2023-07-20T11:24:57;28.90;69.60
25568;DHT22;13455;51.480;7.594;2023-07-20T11:27:23;28.90;70.50
25568;DHT22;13455;51.480;7.594;2023-07-20T11:29:49;28.90;71.80
25568;DHT22;13455;51.480;7.594;2023-07-20T11:32:22;29.70;71.20
25568;DHT22;13455;51.480;7.594;2023-07-20T11:34:48;28.80;70.90
25568;DHT22;13455;51.480;7.594;2023-07-20T11:37:14;28.90;70.10
25568;DHT22;13455;51.480;7.594;2023-07-20T12:50:46;31.40;55.40
25568;DHT22;13455;51.480;7.594;2023-07-20T12:53:12;31.60;54.80
25568;DHT22;13455;51.480;7.594;2023-07-20T13:00:33;31.80;53.90
25568;DHT22;13455;51.480;7.594;2023-07-20T13:02:59;31.80;54.40
25568;DHT22;13455;51.480;7.594;2023-07-20T13:27:23;31.40;51.30
25568;DHT22;13455;51.480;7.594;2023-07-20T13:29:51;31.40;52.40
25568;DHT22;13455;51.480;7.594;2023-07-20T13:32:17;31.30;51.40
25568;DHT22;13455;51.480;7.594;2023-07-20T13:34:46;31.20;52.00
25568;DHT22;13455;51.480;7.594;2023-07-20T13:37:12;31.00;51.50
25568;DHT22;13455;51.480;7.594;2023-07-20T14:11:22;31.10;51.20
25568;DHT22;13455;51.480;7.594;2023-07-20T14:13:48;30.90;51.20
25568;DHT22;13455;51.480;7.594;2023-07-20T14:21:05;30.10;51.20
25568;DHT22;13455;51.480;7.594;2023-07-20T14:23:32;30.10;51.90
25568;DHT22;13455;51.480;7.594;2023-07-20T14:25:58;30.00;53.10
25568;DHT22;13455;51.480;7.594;2023-07-20T14:28:24;30.00;55.90
25568;DHT22;13455;51.480;7.594;2023-07-20T14:33:15;29.60;54.80
25568;DHT22;13455;51.480;7.594;2023-07-20T14:35:41;29.60;55.20
25568;DHT22;13455;51.480;7.594;2023-07-20T14:38:07;29.60;55.40
25568;DHT22;13455;51.480;7.594;2023-07-20T14:40:32;29.60;55.60
25568;DHT22;13455;51.480;7.594;2023-07-20T14:42:58;29.50;55.10
25568;DHT22;13455;51.480;7.594;2023-07-20T14:47:53;29.70;55.30
25568;DHT22;13455;51.480;7.594;2023-07-20T14:50:19;29.70;55.30
25568;DHT22;13455;51.480;7.594;2023-07-20T14:52:45;29.80;55.80
25568;DHT22;13455;51.480;7.594;2023-07-20T14:55:11;30.00;55.30
25568;DHT22;13455;51.480;7.594;2023-07-20T15:00:04;30.10;52.60
25568;DHT22;13455;51.480;7.594;2023-07-20T15:02:33;30.00;53.20
25568;DHT22;13455;51.480;7.594;2023-07-20T15:04:59;29.90;53.60
25568;DHT22;13455;51.480;7.594;2023-07-20T15:14:44;30.00;52.30
25568;DHT22;13455;51.480;7.594;2023-07-20T15:17:14;30.00;53.00
25568;DHT22;13455;51.480;7.594;2023-07-20T15:19:40;30.00;53.00
25568;DHT22;13455;51.480;7.594;2023-07-20T15:22:06;30.00;53.70
25568;DHT22;13455;51.480;7.594;2023-07-20T15:24:33;29.90;53.70
25568;DHT22;13455;51.480;7.594;2023-07-20T15:26:59;29.90;54.00
25568;DHT22;13455;51.480;7.594;2023-07-20T15:36:43;30.40;53.50
25568;DHT22;13455;51.480;7.594;2023-07-20T15:39:08;30.30;52.70
25568;DHT22;13455;51.480;7.594;2023-07-20T15:41:34;30.20;52.30
25568;DHT22;13455;51.480;7.594;2023-07-20T15:44:00;30.20;53.70
25568;DHT22;13455;51.480;7.594;2023-07-20T15:46:46;30.20;53.10
25568;DHT22;13455;51.480;7.594;2023-07-20T15:49:12;30.30;54.40
25568;DHT22;13455;51.480;7.594;2023-07-20T15:51:38;30.80;55.90
25568;DHT22;13455;51.480;7.594;2023-07-20T16:03:52;32.50;53.70
25568;DHT22;13455;51.480;7.594;2023-07-20T16:11:09;34.40;88.90
25568;DHT22;13455;51.480;7.594;2023-07-20T16:35:38;33.20;46.80
25568;DHT22;13455;51.480;7.594;2023-07-20T16:45:22;33.80;46.60
25568;DHT22;13455;51.480;7.594;2023-07-20T16:50:13;34.10;46.70
25568;DHT22;13455;51.480;7.594;2023-07-20T17:24:21;30.50;45.10
25568;DHT22;13455;51.480;7.594;2023-07-20T17:31:38;29.70;47.50
25568;DHT22;13455;51.480;7.594;2023-07-20T17:34:04;29.60;48.40
25568;DHT22;13455;51.480;7.594;2023-07-20T17:36:31;29.50;48.30
25568;DHT22;13455;51.480;7.594;2023-07-20T17:43:49;28.90;49.60
25568;DHT22;13455;51.480;7.594;2023-07-20T17:48:41;28.50;51.10
25568;DHT22;13455;51.480;7.594;2023-07-20T17:53:32;28.10;51.90
25568;DHT22;13455;51.480;7.594;2023-07-20T18:00:51;27.50;53.80
25568;DHT22;13455;51.480;7.594;2023-07-20T18:05:43;27.50;75.80
25568;DHT22;13455;51.480;7.594;2023-07-20T18:42:16;25.70;57.70
25568;DHT22;13455;51.480;7.594;2023-07-20T18:44:43;25.50;59.10
25568;DHT22;13455;51.480;7.594;2023-07-20T18:47:09;25.40;60.10
25568;DHT22;13455;51.480;7.594;2023-07-20T18:49:35;25.20;60.60
25568;DHT22;13455;51.480;7.594;2023-07-20T18:52:01;25.10;60.90
25568;DHT22;13455;51.480;7.594;2023-07-20T18:54:27;25.00;61.90
25568;DHT22;13455;51.480;7.594;2023-07-20T18:56:53;24.80;63.00
25568;DHT22;13455;51.480;7.594;2023-07-20T18:59:18;24.80;72.50
25568;DHT22;13455;51.480;7.594;2023-07-20T19:01:44;24.80;73.20
25568;DHT22;13455;51.480;7.594;2023-07-20T19:06:37;24.40;65.00
25568;DHT22;13455;51.480;7.594;2023-07-20T19:11:29;24.10;67.30
25568;DHT22;13455;51.480;7.594;2023-07-20T19:21:16;23.90;70.40
25568;DHT22;13455;51.480;7.594;2023-07-20T19:45:42;23.00;73.20
25568;DHT22;13455;51.480;7.594;2023-07-20T19:48:08;22.90;74.20
25568;DHT22;13455;51.480;7.594;2023-07-20T19:50:34;23.00;74.80
25568;DHT22;13455;51.480;7.594;2023-07-20T19:55:27;22.90;76.30
25568;DHT22;13455;51.480;7.594;2023-07-20T20:02:49;22.50;80.70
25568;DHT22;13455;51.480;7.594;2023-07-20T20:05:15;22.60;90.60
25568;DHT22;13455;51.480;7.594;2023-07-20T20:07:41;22.40;89.30
25568;DHT22;13455;51.480;7.594;2023-07-20T20:12:36;22.20;78.40
25568;DHT22;13455;51.480;7.594;2023-07-20T20:22:20;22.00;99.90
25568;DHT22;13455;51.480;7.594;2023-07-20T20:24:46;21.80;82.60
25568;DHT22;13455;51.480;7.594;2023-07-20T20:27:11;21.80;80.10
25568;DHT22;13455;51.480;7.594;2023-07-20T20:29:37;21.70;80.60
25568;DHT22;13455;51.480;7.594;2023-07-20T20:32:03;21.70;84.70
25568;DHT22;13455;51.480;7.594;2023-07-20T20:34:30;21.60;81.50
25568;DHT22;13455;51.480;7.594;2023-07-20T20:36:56;21.50;81.70
25568;DHT22;13455;51.480;7.594;2023-07-20T20:39:23;21.50;81.70
25568;DHT22;13455;51.480;7.594;2023-07-20T20:41:48;21.40;81.90
25568;DHT22;13455;51.480;7.594;2023-07-20T20:44:14;21.40;81.70
25568;DHT22;13455;51.480;7.594;2023-07-20T20:46:41;21.40;82.40
25568;DHT22;13455;51.480;7.594;2023-07-20T21:11:04;21.30;83.90
25568;DHT22;13455;51.480;7.594;2023-07-20T21:15:55;21.10;84.90
25568;DHT22;13455;51.480;7.594;2023-07-20T21:18:21;21.20;90.40
25568;DHT22;13455;51.480;7.594;2023-07-20T21:20:47;20.80;87.40
25568;DHT22;13455;51.480;7.594;2023-07-20T21:23:13;20.90;87.50
25568;DHT22;13455;51.480;7.594;2023-07-20T21:28:05;20.80;88.90
25568;DHT22;13455;51.480;7.594;2023-07-20T21:32:57;20.70;90.50
25568;DHT22;13455;51.480;7.594;2023-07-20T21:35:23;20.70;91.00
25568;DHT22;13455;51.480;7.594;2023-07-20T21:37:49;20.70;91.30
25568;DHT22;13455;51.480;7.594;2023-07-20T21:40:16;20.60;91.50
25568;DHT22;13455;51.480;7.594;2023-07-20T21:42:42;20.60;91.70
25568;DHT22;13455;51.480;7.594;2023-07-20T21:45:08;20.60;91.90
25568;DHT22;13455;51.480;7.594;2023-07-20T21:47:34;20.50;92.10
25568;DHT22;13455;51.480;7.594;2023-07-20T21:50:00;20.40;92.20
25568;DHT22;13455;51.480;7.594;2023-07-20T21:52:25;20.40;92.70
25568;DHT22;13455;51.480;7.594;2023-07-20T21:57:20;20.30;93.30
25568;DHT22;13455;51.480;7.594;2023-07-20T21:59:46;20.40;99.90
25568;DHT22;13455;51.480;7.594;2023-07-20T22:02:11;20.40;95.80
25568;DHT22;13455;51.480;7.594;2023-07-20T22:07:03;20.20;95.60
25568;DHT22;13455;51.480;7.594;2023-07-20T22:12:11;20.20;97.20
25568;DHT22;13455;51.480;7.594;2023-07-20T22:21:59;19.70;99.90
25568;DHT22;13455;51.480;7.594;2023-07-20T22:24:28;19.60;99.90
25568;DHT22;13455;51.480;7.594;2023-07-20T22:26:54;19.50;99.90
25568;DHT22;13455;51.480;7.594;2023-07-20T22:29:19;19.40;99.90
25568;DHT22;13455;51.480;7.594;2023-07-20T22:31:45;19.20;99.90
25568;DHT22;13455;51.480;7.594;2023-07-20T22:34:10;19.20;99.90
25568;DHT22;13455;51.480;7.594;2023-07-20T22:36:36;19.20;99.90
25568;DHT22;13455;51.480;7.594;2023-07-20T22:41:29;19.00;99.90
25568;DHT22;13455;51.480;7.594;2023-07-20T22:43:54;19.30;99.90
25568;DHT22;13455;51.480;7.594;2023-07-20T22:48:46;19.00;99.90
25568;DHT22;13455;51.480;7.594;2023-07-20T22:56:04;19.00;99.90
25568;DHT22;13455;51.480;7.594;2023-07-20T22:58:30;19.10;99.90
25568;DHT22;13455;51.480;7.594;2023-07-20T23:03:22;18.90;99.90
25568;DHT22;13455;51.480;7.594;2023-07-20T23:05:48;18.80;99.90
25568;DHT22;13455;51.480;7.594;2023-07-20T23:08:15;18.90;99.90
25568;DHT22;13455;51.480;7.594;2023-07-20T23:10:41;18.50;99.90
25568;DHT22;13455;51.480;7.594;2023-07-20T23:15:32;18.50;99.90
25568;DHT22;13455;51.480;7.594;2023-07-20T23:18:00;18.50;99.90
